Terminal Aerodrome Forecast
Issued by NWS Bismarck, ND

Home | Current Version | Previous Version | Text Only | Print | Product List | Glossary Off
Versions: 1 2 3 4 5 6 7 8 9 10 11 12 13 14 15 16 17 18 19 20 21 22 23

000
FTUS43 KBIS 252300
TAFBIS
TAF
KBIS 252320Z 2600/2624 31012KT P6SM BKN040
     FM260200 31007KT P6SM SCT040
     FM260500 29004KT P6SM BKN120
     FM260700 VRB03KT P6SM BKN140
      TEMPO 2609/2613 4SM BR
     FM261700 06006KT P6SM BKN040=

USA.gov is the U.S. government's official web portal to all federal, state and local government web resources and services.